SAAR/ROS METAR and TAF weather

Enter ICAO airport designator
Station Type Date Time Source
SAAR METAR 2021/09/16 11:00 UTC NOAA

SAAR 161100Z 24002KT CAVOK 06/04 Q1026


Station Type Date Time Source
SAAR Decoded METAR 2021/09/16 11:00 UTC NOAA

Rosario Aerodrome, Argentina (SAAR) 32-55S 060-47W 25M
Sep 16, 2021 - 07:00 AM EDT / 2021.09.16 1100 UTC
Wind: from the WSW (240 degrees) at 2 MPH (2 KT):0
Visibility: greater than 7 mile(s):0
Temperature: 42 F (6 C)
Dew Point: 39 F (4 C)
Relative Humidity: 86%
Pressure (altimeter): 30.30 in. Hg (1026 hPa)
ob: SAAR 161100Z 24002KT CAVOK 06/04 Q1026
cycle: 11

Station Type Date Time Source
SAAR TAF 2021/09/16 06:12 UTC NOAA

TAF TAF SAAR 160500Z 1606/1706 VRB03KT CAVOK TX25/1618Z TN07/1610Z
BECMG 1612/1614 02010KT

Example: see airport list